createdAt,value
2017-09-08T00:01:44.377Z,14.90
2017-09-08T00:04:12.719Z,14.80
2017-09-08T00:06:41.218Z,14.90
2017-09-08T00:09:08.763Z,14.80
2017-09-08T00:11:36.333Z,14.80
2017-09-08T00:14:03.870Z,14.80
2017-09-08T00:16:31.393Z,14.80
2017-09-08T00:18:58.954Z,14.80
2017-09-08T00:21:26.491Z,14.80
2017-09-08T00:23:54.046Z,14.80
2017-09-08T00:26:21.575Z,14.80
2017-09-08T00:28:49.111Z,14.80
2017-09-08T00:31:16.653Z,14.80
2017-09-08T00:33:44.221Z,14.80
2017-09-08T00:36:12.668Z,14.80
2017-09-08T00:38:41.117Z,14.80
2017-09-08T00:41:08.660Z,14.80
2017-09-08T00:43:36.589Z,14.80
2017-09-08T00:46:04.145Z,14.90
2017-09-08T00:48:31.676Z,14.80
2017-09-08T00:50:59.208Z,14.80
2017-09-08T00:53:26.748Z,14.90
2017-09-08T00:55:54.779Z,14.80
2017-09-08T00:58:22.324Z,14.90
2017-09-08T01:00:49.872Z,14.80
2017-09-08T01:03:17.403Z,14.80
2017-09-08T01:05:44.969Z,14.80
2017-09-08T01:08:12.894Z,14.80
2017-09-08T01:10:40.926Z,14.80
2017-09-08T01:13:08.464Z,14.80
2017-09-08T01:15:35.990Z,14.80
2017-09-08T01:18:03.542Z,14.80
2017-09-08T01:20:31.068Z,14.80
2017-09-08T01:22:58.604Z,14.80
2017-09-08T01:25:26.146Z,14.80
2017-09-08T01:27:53.703Z,14.80
2017-09-08T01:30:21.234Z,14.80
2017-09-08T01:32:48.794Z,14.80
2017-09-08T01:35:16.332Z,14.80
2017-09-08T01:37:43.851Z,14.80
2017-09-08T01:40:12.772Z,14.80
2017-09-08T01:42:41.455Z,14.80
2017-09-08T01:45:09.018Z,14.80
2017-09-08T01:47:36.539Z,14.80
2017-09-08T01:50:04.119Z,14.80
2017-09-08T01:52:31.655Z,14.80
2017-09-08T01:54:59.200Z,14.70
2017-09-08T01:57:26.711Z,14.70
2017-09-08T01:59:54.259Z,14.70
2017-09-08T02:02:21.834Z,14.70
2017-09-08T02:04:49.359Z,14.70
2017-09-08T02:07:17.304Z,14.70
2017-09-08T02:09:44.853Z,14.70
2017-09-08T02:12:12.417Z,14.70
2017-09-08T02:14:40.445Z,14.70
2017-09-08T02:17:08.003Z,14.60
2017-09-08T02:19:35.527Z,14.60
2017-09-08T02:22:08.813Z,14.60
2017-09-08T02:24:36.339Z,14.60
2017-09-08T02:27:03.899Z,14.60
2017-09-08T02:29:31.420Z,14.60
2017-09-08T02:31:58.959Z,14.60
2017-09-08T02:34:26.521Z,14.60
2017-09-08T02:36:54.036Z,14.60
2017-09-08T02:39:21.604Z,14.60
2017-09-08T02:41:49.124Z,14.60
2017-09-08T02:44:16.674Z,14.60
2017-09-08T02:46:44.213Z,14.60
2017-09-08T02:49:12.869Z,14.50
2017-09-08T02:51:40.969Z,14.60
2017-09-08T02:54:08.540Z,14.60
2017-09-08T02:56:36.482Z,14.60
2017-09-08T02:59:04.009Z,14.60
2017-09-08T03:01:31.574Z,14.60
2017-09-08T03:03:59.106Z,14.60
2017-09-08T03:06:26.653Z,14.60
2017-09-08T03:08:54.208Z,14.60
2017-09-08T03:11:21.758Z,14.60
2017-09-08T03:13:49.681Z,14.60
2017-09-08T03:16:17.255Z,14.60
2017-09-08T03:18:44.774Z,14.60
2017-09-08T03:21:12.350Z,14.60
2017-09-08T03:23:40.628Z,14.60
2017-09-08T03:26:08.183Z,14.60
2017-09-08T03:28:35.733Z,14.60
2017-09-08T03:31:03.271Z,14.50
2017-09-08T03:33:30.807Z,14.50
2017-09-08T03:35:58.334Z,14.50
2017-09-08T03:38:25.883Z,14.50
2017-09-08T03:40:53.412Z,14.50
2017-09-08T03:43:20.947Z,14.50
2017-09-08T03:45:48.485Z,14.40
2017-09-08T03:48:16.071Z,14.50
2017-09-08T03:50:43.604Z,14.50
2017-09-08T03:53:11.146Z,14.50
2017-09-08T03:55:38.687Z,14.50
2017-09-08T03:58:06.211Z,14.50
2017-09-08T04:00:33.778Z,14.50
2017-09-08T04:03:01.330Z,14.50
2017-09-08T04:05:29.282Z,14.50
2017-09-08T04:07:56.818Z,14.50
2017-09-08T04:10:24.379Z,14.40
2017-09-08T04:12:51.927Z,14.50
2017-09-08T04:15:19.483Z,14.40
2017-09-08T04:17:47.009Z,14.50
2017-09-08T04:20:14.570Z,14.40
2017-09-08T04:22:42.115Z,14.50
2017-09-08T04:25:09.650Z,14.50
2017-09-08T04:27:37.188Z,14.50
2017-09-08T04:30:04.718Z,14.50
2017-09-08T04:32:32.275Z,14.50
2017-09-08T04:34:59.795Z,14.50
2017-09-08T04:37:27.329Z,14.50
2017-09-08T04:39:54.874Z,14.60
2017-09-08T04:42:22.430Z,14.50
2017-09-08T04:44:49.961Z,14.50
2017-09-08T04:47:17.505Z,14.50
2017-09-08T04:49:45.048Z,14.50
2017-09-08T04:52:12.574Z,14.50
2017-09-08T04:54:40.583Z,14.50
2017-09-08T04:57:08.519Z,14.40
2017-09-08T04:59:36.065Z,14.40
2017-09-08T05:02:03.587Z,14.40
2017-09-08T05:04:31.153Z,14.40
2017-09-08T05:06:58.713Z,14.50
2017-09-08T05:09:26.272Z,14.40
2017-09-08T05:11:53.785Z,14.40
2017-09-08T05:14:21.341Z,14.40
2017-09-08T05:16:48.890Z,14.40
2017-09-08T05:19:16.405Z,14.40
2017-09-08T05:21:43.957Z,14.40
2017-09-08T05:24:12.132Z,14.50
2017-09-08T05:26:39.693Z,14.40
2017-09-08T05:29:07.240Z,14.40
2017-09-08T05:31:34.778Z,14.50
2017-09-08T05:34:02.355Z,14.50
2017-09-08T05:36:30.302Z,14.50
2017-09-08T05:38:57.817Z,14.50
2017-09-08T05:41:25.358Z,14.50
2017-09-08T05:43:52.900Z,14.50
2017-09-08T05:46:20.416Z,14.50
2017-09-08T05:48:47.978Z,14.50
2017-09-08T05:51:15.506Z,14.50
2017-09-08T05:53:43.049Z,14.50
2017-09-08T05:56:10.617Z,14.60
2017-09-08T05:58:38.189Z,14.50
2017-09-08T06:01:05.718Z,14.60
2017-09-08T06:03:33.256Z,14.60
2017-09-08T06:06:00.802Z,14.60
2017-09-08T06:08:28.336Z,14.60
2017-09-08T06:10:55.900Z,14.60
2017-09-08T06:13:23.433Z,14.60
2017-09-08T06:15:50.992Z,14.60
2017-09-08T06:18:18.530Z,14.60
2017-09-08T06:20:46.086Z,14.60
2017-09-08T06:23:13.623Z,14.60
2017-09-08T06:25:41.206Z,14.60
2017-09-08T06:28:08.724Z,14.60
2017-09-08T06:30:36.243Z,14.60
2017-09-08T06:33:03.779Z,14.60
2017-09-08T06:35:31.310Z,14.60
2017-09-08T06:37:58.859Z,14.60
2017-09-08T06:40:26.393Z,14.60
2017-09-08T06:42:53.929Z,14.60
2017-09-08T06:45:21.443Z,14.60
2017-09-08T06:47:48.991Z,14.60
2017-09-08T06:50:16.525Z,14.60
2017-09-08T06:52:44.071Z,14.70
2017-09-08T06:55:12.350Z,14.70
2017-09-08T06:57:39.882Z,14.70
2017-09-08T07:00:08.326Z,14.70
2017-09-08T07:02:35.863Z,14.60
2017-09-08T07:05:03.491Z,14.70
2017-09-08T07:07:31.016Z,14.70
2017-09-08T07:09:58.585Z,14.60
2017-09-08T07:12:26.134Z,14.60
2017-09-08T07:14:54.056Z,14.70
2017-09-08T07:17:21.605Z,14.70
2017-09-08T07:19:49.239Z,14.70
2017-09-08T07:22:16.812Z,14.60
2017-09-08T07:24:44.357Z,14.70
2017-09-08T07:27:13.074Z,14.70
2017-09-08T07:29:40.644Z,14.70
2017-09-08T07:32:08.220Z,14.70
2017-09-08T07:34:35.747Z,14.70
2017-09-08T07:37:03.274Z,14.80
2017-09-08T07:39:30.838Z,14.80
2017-09-08T07:41:58.380Z,14.80
2017-09-08T07:44:25.937Z,14.90
2017-09-08T07:46:53.518Z,14.90
2017-09-08T07:49:28.343Z,15.00
2017-09-08T07:51:55.975Z,15.00
2017-09-08T07:54:23.723Z,15.10
2017-09-08T07:56:51.244Z,15.20
2017-09-08T07:59:18.783Z,15.20
2017-09-08T08:01:46.340Z,15.20
2017-09-08T08:04:13.900Z,15.10
2017-09-08T08:06:42.468Z,15.10
2017-09-08T08:09:10.651Z,15.10
2017-09-08T08:11:38.196Z,15.20
2017-09-08T08:14:05.742Z,15.20
2017-09-08T08:16:33.316Z,15.20
2017-09-08T08:19:00.852Z,15.20
2017-09-08T08:21:28.398Z,15.20
2017-09-08T08:23:55.957Z,15.20
2017-09-08T08:26:23.494Z,15.30
2017-09-08T08:28:51.067Z,15.30
2017-09-08T08:31:18.631Z,15.30
2017-09-08T08:33:46.203Z,15.30
2017-09-08T08:36:13.732Z,15.30
2017-09-08T08:38:41.303Z,15.30
2017-09-08T08:41:08.871Z,15.30
2017-09-08T08:43:36.404Z,15.30
2017-09-08T08:46:03.958Z,15.40
2017-09-08T08:48:31.492Z,15.40
2017-09-08T08:50:59.032Z,15.50
2017-09-08T08:53:26.625Z,15.50
2017-09-08T08:55:54.179Z,15.50
2017-09-08T08:58:21.721Z,15.50
2017-09-08T09:00:49.279Z,15.50
2017-09-08T09:03:16.800Z,15.50
2017-09-08T09:05:44.334Z,15.50
2017-09-08T09:08:13.151Z,15.50
2017-09-08T09:10:42.022Z,15.50
2017-09-08T09:13:09.574Z,15.50
2017-09-08T09:15:37.116Z,15.60
2017-09-08T09:18:04.666Z,15.60
2017-09-08T09:20:32.200Z,15.60
2017-09-08T09:22:59.785Z,15.60
2017-09-08T09:25:27.330Z,15.50
2017-09-08T09:27:54.915Z,15.50
2017-09-08T09:30:22.455Z,15.60
2017-09-08T09:32:49.980Z,15.60
2017-09-08T09:35:17.516Z,15.50
2017-09-08T09:37:45.043Z,15.50
2017-09-08T09:40:12.595Z,15.60
2017-09-08T09:42:40.872Z,15.50
2017-09-08T09:45:08.437Z,15.50
2017-09-08T09:47:36.983Z,15.50
2017-09-08T09:50:04.495Z,15.50
2017-09-08T09:52:32.051Z,15.40
2017-09-08T09:54:59.589Z,15.50
2017-09-08T09:57:27.124Z,15.50
2017-09-08T09:59:54.647Z,15.50
2017-09-08T10:02:22.201Z,15.50
2017-09-08T10:04:49.738Z,15.50
2017-09-08T10:07:17.315Z,15.50
2017-09-08T10:09:44.850Z,15.50
2017-09-08T10:12:12.383Z,15.50
2017-09-08T10:14:39.939Z,15.40
2017-09-08T10:17:07.476Z,15.40
2017-09-08T10:19:35.072Z,15.40
2017-09-08T10:22:02.585Z,15.40
2017-09-08T10:24:30.120Z,15.40
2017-09-08T10:26:57.643Z,15.40
2017-09-08T10:29:25.191Z,15.50
2017-09-08T10:31:52.736Z,15.50
2017-09-08T10:34:20.274Z,15.50
2017-09-08T10:36:47.811Z,15.60
2017-09-08T10:39:15.341Z,15.60
2017-09-08T10:41:42.890Z,15.60
2017-09-08T10:44:10.806Z,15.60
2017-09-08T10:46:38.351Z,15.60
2017-09-08T10:49:05.882Z,15.70
2017-09-08T10:51:33.444Z,15.70
2017-09-08T10:54:00.998Z,15.70
2017-09-08T10:56:28.533Z,15.80
2017-09-08T10:58:56.115Z,15.70
2017-09-08T11:01:23.651Z,15.70
2017-09-08T11:03:51.220Z,15.70
2017-09-08T11:06:18.779Z,15.70
2017-09-08T11:08:46.435Z,15.70
2017-09-08T11:11:13.963Z,15.80
2017-09-08T11:13:42.706Z,15.70
2017-09-08T11:16:10.293Z,15.80
2017-09-08T11:18:37.819Z,15.70
2017-09-08T11:21:05.378Z,15.70
2017-09-08T11:23:32.912Z,15.70
2017-09-08T11:26:01.301Z,15.70
2017-09-08T11:28:28.903Z,15.60
2017-09-08T11:30:56.851Z,15.40
2017-09-08T11:33:30.067Z,15.40
2017-09-08T11:39:01.698Z,15.20
2017-09-08T11:41:29.277Z,15.00
2017-09-08T11:43:56.794Z,15.00
2017-09-08T11:46:24.343Z,14.90
2017-09-08T11:48:51.910Z,14.90
2017-09-08T11:51:19.430Z,14.70
2017-09-08T11:53:46.990Z,14.60
2017-09-08T11:56:14.520Z,14.50
2017-09-08T11:58:43.338Z,14.40
2017-09-08T12:01:11.267Z,14.30
2017-09-08T12:03:38.805Z,14.30
2017-09-08T12:06:06.339Z,14.20
2017-09-08T12:08:33.887Z,14.20
2017-09-08T12:11:01.444Z,14.20
2017-09-08T12:13:29.367Z,14.20
2017-09-08T12:15:56.950Z,14.20
2017-09-08T12:18:24.486Z,14.20
2017-09-08T12:20:52.031Z,14.20
2017-09-08T12:23:19.571Z,14.20
2017-09-08T12:25:47.102Z,14.20
2017-09-08T12:28:14.702Z,14.20
2017-09-08T12:30:42.887Z,14.20
2017-09-08T12:33:16.867Z,14.20
2017-09-08T12:35:44.422Z,14.20
2017-09-08T12:38:12.926Z,14.20
2017-09-08T12:40:41.579Z,14.20
2017-09-08T12:43:09.504Z,14.20
2017-09-08T12:45:37.055Z,14.20
2017-09-08T12:48:04.585Z,14.20
2017-09-08T12:50:32.149Z,14.20
2017-09-08T12:53:00.052Z,14.20
2017-09-08T12:55:27.619Z,14.30
2017-09-08T12:57:55.162Z,14.20
2017-09-08T13:00:22.689Z,14.30
2017-09-08T13:02:50.270Z,14.20
2017-09-08T13:05:17.802Z,14.30
2017-09-08T13:07:45.358Z,14.30
2017-09-08T13:10:12.888Z,14.30
2017-09-08T13:12:40.858Z,14.30
2017-09-08T13:15:08.421Z,14.30
2017-09-08T13:17:35.962Z,14.30
2017-09-08T13:20:03.624Z,14.30
2017-09-08T13:22:31.148Z,14.30
2017-09-08T13:24:58.697Z,14.30
2017-09-08T13:27:26.228Z,14.30
2017-09-08T13:29:53.764Z,14.40
2017-09-08T13:32:21.310Z,14.40
2017-09-08T13:34:48.873Z,14.40
2017-09-08T13:37:16.395Z,14.40
2017-09-08T13:39:43.912Z,14.40
2017-09-08T13:42:13.041Z,14.50
2017-09-08T13:44:41.162Z,14.50
2017-09-08T13:47:09.517Z,14.50
2017-09-08T13:49:37.027Z,14.50
2017-09-08T13:52:04.593Z,14.60
2017-09-08T13:54:32.163Z,14.60
2017-09-08T13:56:59.683Z,14.60
2017-09-08T13:59:27.242Z,14.60
2017-09-08T14:01:54.771Z,14.60
2017-09-08T14:04:22.343Z,14.60
2017-09-08T14:06:49.890Z,14.60
2017-09-08T14:09:17.429Z,14.70
2017-09-08T14:11:44.980Z,14.70
2017-09-08T14:14:12.555Z,14.70
2017-09-08T14:16:40.071Z,14.70
2017-09-08T14:19:07.637Z,14.60
2017-09-08T14:21:35.623Z,14.60
2017-09-08T14:24:03.154Z,14.60
2017-09-08T14:26:30.718Z,14.60
2017-09-08T14:28:58.289Z,14.60
2017-09-08T14:31:25.845Z,14.60
2017-09-08T14:33:53.402Z,14.60
2017-09-08T14:36:20.962Z,14.70
2017-09-08T14:38:48.503Z,14.70
2017-09-08T14:41:16.054Z,14.70
2017-09-08T14:43:43.594Z,14.70
2017-09-08T14:46:12.145Z,14.70
2017-09-08T14:48:39.698Z,14.70
2017-09-08T14:51:07.216Z,14.70
2017-09-08T14:53:34.847Z,14.70
2017-09-08T14:56:02.373Z,14.70
2017-09-08T14:58:29.961Z,14.70
2017-09-08T15:00:57.519Z,14.60
2017-09-08T15:03:25.037Z,14.70
2017-09-08T15:05:52.589Z,14.70
2017-09-08T15:08:20.105Z,14.70
2017-09-08T15:10:47.681Z,14.70
2017-09-08T15:13:15.365Z,14.70
2017-09-08T15:15:43.466Z,14.70
2017-09-08T15:18:12.568Z,14.70
2017-09-08T15:20:40.905Z,14.70
2017-09-08T15:23:09.137Z,14.70
2017-09-08T15:25:36.666Z,14.70
2017-09-08T15:28:04.216Z,14.70
2017-09-08T15:30:31.866Z,14.70
2017-09-08T15:32:59.431Z,14.70
2017-09-08T15:35:26.971Z,14.70
2017-09-08T15:37:54.698Z,14.80
2017-09-08T15:40:22.262Z,14.70
2017-09-08T15:42:49.825Z,14.80
2017-09-08T15:45:17.385Z,14.70
2017-09-08T15:47:45.023Z,14.70
2017-09-08T15:50:12.607Z,14.70
2017-09-08T15:52:40.134Z,14.70
2017-09-08T15:55:07.726Z,14.70
2017-09-08T15:57:35.257Z,14.80
2017-09-08T16:00:02.953Z,14.80
2017-09-08T16:02:30.760Z,14.70
2017-09-08T16:04:58.284Z,14.80
2017-09-08T16:07:25.819Z,14.80
2017-09-08T16:09:53.345Z,14.70
2017-09-08T16:12:21.756Z,14.70
2017-09-08T16:14:49.314Z,14.80
2017-09-08T16:17:18.063Z,14.80
2017-09-08T16:19:45.610Z,14.80
2017-09-08T16:22:13.144Z,14.80
2017-09-08T16:24:42.055Z,14.80
2017-09-08T16:27:09.635Z,14.80
2017-09-08T16:29:37.439Z,14.80
2017-09-08T16:32:04.985Z,14.70
2017-09-08T16:34:32.552Z,14.70
2017-09-08T16:37:00.102Z,14.70
2017-09-08T16:39:27.852Z,14.60
2017-09-08T16:41:55.423Z,14.70
2017-09-08T16:44:23.043Z,14.70
2017-09-08T16:46:50.586Z,14.60
2017-09-08T16:49:18.237Z,14.60
2017-09-08T16:51:45.794Z,14.60
2017-09-08T16:54:13.323Z,14.60
2017-09-08T16:56:41.566Z,14.60
2017-09-08T16:59:09.087Z,14.60
2017-09-08T17:01:36.648Z,14.60
2017-09-08T17:04:04.168Z,14.60
2017-09-08T17:06:31.763Z,14.60
2017-09-08T17:08:59.322Z,14.60
2017-09-08T17:11:26.868Z,14.60
2017-09-08T17:13:54.450Z,14.60
2017-09-08T17:16:22.423Z,14.60
2017-09-08T17:18:50.354Z,14.60
2017-09-08T17:21:17.874Z,14.70
2017-09-08T17:23:45.459Z,14.70
2017-09-08T17:26:12.991Z,14.70
2017-09-08T17:28:41.083Z,14.70
2017-09-08T17:31:08.626Z,14.70
2017-09-08T17:33:36.216Z,14.70
2017-09-08T17:36:03.744Z,14.60
2017-09-08T17:38:31.320Z,14.60
2017-09-08T17:40:58.978Z,14.60
2017-09-08T17:43:26.527Z,14.60
2017-09-08T17:45:54.107Z,14.60
2017-09-08T17:48:21.666Z,14.60
2017-09-08T17:50:49.192Z,14.60
2017-09-08T17:53:16.777Z,14.60
2017-09-08T17:55:44.346Z,14.60
2017-09-08T17:58:13.289Z,14.60
2017-09-08T18:00:41.878Z,14.50
2017-09-08T18:03:09.447Z,14.60
2017-09-08T18:05:36.980Z,14.50
2017-09-08T18:08:04.731Z,14.50
2017-09-08T18:10:32.313Z,14.50
2017-09-08T18:13:01.464Z,14.50
2017-09-08T18:15:28.991Z,14.50
2017-09-08T18:17:56.557Z,14.50
2017-09-08T18:20:24.153Z,14.50
2017-09-08T18:22:51.841Z,14.50
2017-09-08T18:25:19.410Z,14.50
2017-09-08T18:27:47.144Z,14.50
2017-09-08T18:30:14.969Z,14.50
2017-09-08T18:32:42.680Z,14.50
2017-09-08T18:35:11.045Z,14.50
2017-09-08T18:37:38.843Z,14.60
2017-09-08T18:40:06.600Z,14.50
2017-09-08T18:42:34.254Z,14.50
2017-09-08T18:45:01.831Z,14.50
2017-09-08T18:47:29.490Z,14.50
2017-09-08T18:49:57.067Z,14.50
2017-09-08T18:52:24.698Z,14.60
2017-09-08T18:54:52.234Z,14.50
2017-09-08T18:57:19.802Z,14.50
2017-09-08T18:59:47.351Z,14.50
2017-09-08T19:02:14.929Z,14.50
2017-09-08T19:04:43.258Z,14.50
2017-09-08T19:07:11.787Z,14.50
2017-09-08T19:09:42.760Z,14.50
2017-09-08T19:12:10.288Z,14.60
2017-09-08T19:14:42.489Z,14.60
2017-09-08T19:17:10.013Z,14.60
2017-09-08T19:19:37.571Z,14.50
2017-09-08T19:22:05.174Z,14.60
2017-09-08T19:24:32.751Z,14.60
2017-09-08T19:27:00.296Z,14.60
2017-09-08T19:29:27.878Z,14.60
2017-09-08T19:31:55.543Z,14.50
2017-09-08T19:34:23.127Z,14.60
2017-09-08T19:36:50.784Z,14.50
2017-09-08T19:39:18.339Z,14.50
2017-09-08T19:41:45.905Z,14.60
2017-09-08T19:44:13.457Z,14.50
2017-09-08T19:46:41.067Z,14.60
2017-09-08T19:49:08.651Z,14.60
2017-09-08T19:51:36.179Z,14.50
2017-09-08T19:54:04.242Z,14.60
2017-09-08T19:56:31.782Z,14.60
2017-09-08T19:58:59.351Z,14.60
2017-09-08T20:01:26.959Z,14.60
2017-09-08T20:03:54.510Z,14.50
2017-09-08T20:06:22.023Z,14.60
2017-09-08T20:08:49.624Z,14.60
2017-09-08T20:11:17.175Z,14.60
2017-09-08T20:13:44.855Z,14.50
2017-09-08T20:16:13.165Z,14.60
2017-09-08T20:18:41.531Z,14.60
2017-09-08T20:21:09.076Z,14.50
2017-09-08T20:23:36.638Z,14.60
2017-09-08T20:26:04.191Z,14.60
2017-09-08T20:28:31.837Z,14.60
2017-09-08T20:30:59.388Z,14.60
2017-09-08T20:33:26.950Z,14.60
2017-09-08T20:35:54.501Z,14.60
2017-09-08T20:38:22.070Z,14.60
2017-09-08T20:40:49.634Z,14.60
2017-09-08T20:43:17.162Z,14.60
2017-09-08T20:45:44.729Z,14.60
2017-09-08T20:48:13.025Z,14.60
2017-09-08T20:50:41.084Z,14.50
2017-09-08T20:53:08.629Z,14.60
2017-09-08T20:55:36.180Z,14.60
2017-09-08T20:58:03.734Z,14.50
2017-09-08T21:00:31.372Z,14.50
2017-09-08T21:02:58.891Z,14.50
2017-09-08T21:05:26.827Z,14.50
2017-09-08T21:07:54.349Z,14.60
2017-09-08T21:10:21.920Z,14.50
2017-09-08T21:12:49.469Z,14.50
2017-09-08T21:15:17.040Z,14.50
2017-09-08T21:17:44.560Z,14.50
2017-09-08T21:20:13.457Z,14.60
2017-09-08T21:22:41.133Z,14.60
2017-09-08T21:25:08.689Z,14.60
2017-09-08T21:27:36.438Z,14.60
2017-09-08T21:30:03.979Z,14.60
2017-09-08T21:32:31.762Z,14.60
2017-09-08T21:34:59.351Z,14.60
2017-09-08T21:37:26.942Z,14.60
2017-09-08T21:39:54.507Z,14.60
2017-09-08T21:42:22.045Z,14.60
2017-09-08T21:44:49.636Z,14.60
2017-09-08T21:47:17.171Z,14.60
2017-09-08T21:49:44.722Z,14.60
2017-09-08T21:52:12.773Z,14.60
2017-09-08T21:54:40.319Z,14.60
2017-09-08T21:57:07.850Z,14.60
2017-09-08T21:59:35.405Z,14.60
2017-09-08T22:02:02.931Z,14.60
2017-09-08T22:04:30.876Z,14.60
2017-09-08T22:06:58.417Z,14.60
2017-09-08T22:09:25.979Z,14.60
2017-09-08T22:11:53.513Z,14.60
2017-09-08T22:14:21.082Z,14.60
2017-09-08T22:16:48.618Z,14.60
2017-09-08T22:19:16.168Z,14.60
2017-09-08T22:21:43.723Z,14.60
2017-09-08T22:24:12.251Z,14.50
2017-09-08T22:26:40.009Z,14.50
2017-09-08T22:29:07.831Z,14.50
2017-09-08T22:31:35.386Z,14.50
2017-09-08T22:34:02.925Z,14.50
2017-09-08T22:36:30.476Z,14.40
2017-09-08T22:38:58.175Z,14.40
2017-09-08T22:41:25.726Z,14.40
2017-09-08T22:43:53.277Z,14.40
2017-09-08T22:46:20.848Z,14.40
2017-09-08T22:48:48.561Z,14.40
2017-09-08T22:51:16.111Z,14.40
2017-09-08T22:53:43.669Z,14.40
2017-09-08T22:56:12.138Z,14.50
2017-09-08T22:58:39.683Z,14.50
2017-09-08T23:01:08.322Z,14.50
2017-09-08T23:03:35.858Z,14.50
2017-09-08T23:06:03.500Z,14.60
2017-09-08T23:08:31.032Z,14.50
2017-09-08T23:10:58.583Z,14.50
2017-09-08T23:13:26.127Z,14.60
2017-09-08T23:15:54.074Z,14.60
2017-09-08T23:18:21.638Z,14.60
2017-09-08T23:20:49.210Z,14.60
2017-09-08T23:23:16.771Z,14.60
2017-09-08T23:25:44.731Z,14.60
2017-09-08T23:28:13.101Z,14.60
2017-09-08T23:30:40.719Z,14.60
2017-09-08T23:33:08.248Z,14.60
2017-09-08T23:35:35.814Z,14.60
2017-09-08T23:38:03.363Z,14.60
2017-09-08T23:40:30.927Z,14.60
2017-09-08T23:42:58.900Z,14.60
2017-09-08T23:45:26.887Z,14.60
2017-09-08T23:47:55.342Z,14.60
2017-09-08T23:50:22.946Z,14.60
2017-09-08T23:52:50.475Z,14.60
2017-09-08T23:55:18.042Z,14.60
2017-09-08T23:57:46.616Z,14.60
